Time;durP1;ratioP1;P1;durP2;ratioP2;P2;SDS_P1;SDS_P2;PMS_P1;PMS_P2;Temp;Humidity;BMP_temperature;BMP_pressure;BME280_temperature;BME280_humidity;BME280_pressure;Samples;Min_cycle;Max_cycle;Signal;HPM_P1;HPM_P2
2022/02/26 00:00:01;;;;;;;20.07;13.67;;;;;;;7.02;48.71;101666.69;2097554;28;20619;-67
2022/02/26 00:01:01;;;;;;;17.05;11.55;;;;;;;7.03;49.03;101669.03;2097836;28;20461;-67
2022/02/26 00:02:02;;;;;;;16.83;11.60;;;;;;;6.97;50.95;101664.28;2097896;28;20184;-67
2022/02/26 00:03:03;;;;;;;19.63;13.90;;;;;;;7.09;49.53;101675.00;2097495;28;20191;-67
2022/02/26 00:04:03;;;;;;;18.17;13.23;;;;;;;7.11;49.73;101665.16;2098071;28;20182;-67
2022/02/26 00:05:04;;;;;;;21.90;14.73;;;;;;;7.15;50.59;101677.00;2098057;28;20684;-67
2022/02/26 00:06:05;;;;;;;18.10;12.00;;;;;;;7.13;50.93;101679.34;2097990;28;20184;-67
2022/02/26 00:07:08;;;;;;;19.23;13.63;;;;;;;7.19;49.36;101675.06;2098034;28;20270;-67
2022/02/26 00:08:08;;;;;;;18.70;13.45;;;;;;;7.23;50.33;101681.38;2097810;28;20228;-67
2022/02/26 00:09:09;;;;;;;20.43;13.97;;;;;;;7.16;49.73;101667.56;2088932;28;20188;-67
2022/02/26 00:10:10;;;;;;;20.40;14.17;;;;;;;6.09;51.21;101509.38;2088190;28;20219;-67
2022/02/26 00:11:10;;;;;;;22.60;16.40;;;;;;;6.07;51.23;101516.41;2088438;28;20194;-67
2022/02/26 00:12:11;;;;;;;31.67;21.90;;;;;;;7.01;51.26;101663.13;2089581;28;20184;-67
2022/02/26 00:13:11;;;;;;;40.53;26.70;;;;;;;6.93;54.48;101685.50;2089293;28;20242;-67
2022/02/26 00:14:12;;;;;;;40.77;30.17;;;;;;;6.92;57.60;101692.97;2089738;28;20184;-67
2022/02/26 00:15:13;;;;;;;45.80;30.63;;;;;;;6.87;58.14;101689.78;2089619;28;20579;-67
2022/02/26 00:16:13;;;;;;;41.73;29.77;;;;;;;6.70;58.18;101646.34;2089770;28;20183;-67
2022/02/26 00:17:14;;;;;;;40.77;30.27;;;;;;;6.97;58.56;101678.84;2080645;28;20189;-67
2022/02/26 00:18:14;;;;;;;43.20;31.10;;;;;;;6.94;58.26;101689.84;2080797;28;20182;-67
2022/02/26 00:19:15;;;;;;;42.77;29.60;;;;;;;6.70;58.44;101649.09;2089537;28;20314;-67
2022/02/26 00:20:16;;;;;;;42.10;30.27;;;;;;;6.93;58.13;101693.78;2080030;28;20247;-67
2022/02/26 00:21:16;;;;;;;43.33;30.38;;;;;;;6.87;58.79;101687.81;2080757;28;20212;-67
2022/02/26 00:22:17;;;;;;;42.60;30.00;;;;;;;6.91;57.97;101690.59;2089560;28;20180;-67
2022/02/26 00:23:18;;;;;;;41.60;29.17;;;;;;;6.79;57.89;101666.91;2088820;28;20181;-67
2022/02/26 00:24:18;;;;;;;39.67;27.33;;;;;;;6.74;57.30;101663.69;2089718;28;20184;-67
2022/02/26 00:25:19;;;;;;;42.10;28.33;;;;;;;6.90;57.62;101687.06;2089499;28;20184;-67
2022/02/26 00:26:22;;;;;;;43.60;29.90;;;;;;;6.82;57.60;101679.91;2089618;28;20260;-67
2022/02/26 00:27:23;;;;;;;31.17;23.08;;;;;;;6.58;57.31;101636.44;2089403;28;20216;-67
2022/02/26 00:28:23;;;;;;;35.50;25.87;;;;;;;6.92;56.14;101690.22;2089644;28;20723;-67
2022/02/26 00:29:24;;;;;;;37.87;27.13;;;;;;;7.01;55.36;101689.88;2097100;28;20191;-67
2022/02/26 00:30:26;;;;;;;38.57;27.43;;;;;;;6.97;55.64;101684.34;2097097;28;20203;-67
2022/02/26 00:31:26;;;;;;;36.03;27.60;;;;;;;6.94;56.41;101687.88;2097594;28;20543;-67
2022/02/26 00:32:27;;;;;;;30.10;20.27;;;;;;;6.89;55.50;101682.72;2097813;28;20249;-67
2022/02/26 00:33:28;;;;;;;32.33;21.43;;;;;;;6.34;54.15;101597.66;2097390;28;20190;-67
2022/02/26 00:34:29;;;;;;;38.77;27.40;;;;;;;6.88;54.91;101694.13;2097699;28;20193;-67
2022/02/26 00:35:29;;;;;;;39.95;27.52;;;;;;;6.86;55.25;101688.19;2097727;28;20661;-67
2022/02/26 00:36:30;;;;;;;38.90;27.90;;;;;;;6.75;54.87;101682.59;2097881;28;20559;-67
2022/02/26 00:37:31;;;;;;;36.83;26.20;;;;;;;6.80;55.93;101689.72;2097608;28;20183;-67
2022/02/26 00:38:31;;;;;;;38.03;27.13;;;;;;;6.74;55.93;101697.56;2097993;28;20176;-67
2022/02/26 00:39:32;;;;;;;36.57;28.10;;;;;;;6.67;55.45;101691.19;2097762;28;20176;-67
2022/02/26 00:40:33;;;;;;;37.27;26.53;;;;;;;5.65;55.40;101549.78;2097000;28;20175;-67
2022/02/26 00:41:34;;;;;;;41.13;26.77;;;;;;;6.63;56.45;101693.91;2097508;28;20336;-67
2022/02/26 00:42:34;;;;;;;27.40;19.60;;;;;;;6.15;55.61;101628.16;2097134;28;20849;-67
2022/02/26 00:43:35;;;;;;;42.37;26.60;;;;;;;5.82;55.52;101571.22;2097130;28;20182;-67
2022/02/26 00:44:38;;;;;;;30.93;22.00;;;;;;;6.57;55.45;101695.41;2097823;28;20203;-67
2022/02/26 00:45:39;;;;;;;21.40;14.45;;;;;;;6.57;53.90;101689.91;2097606;28;20561;-67
2022/02/26 00:46:39;;;;;;;22.23;15.50;;;;;;;6.58;53.78;101696.22;2097676;28;20201;-67
2022/02/26 00:47:40;;;;;;;34.50;21.80;;;;;;;6.00;54.29;101610.69;2097474;28;20184;-67
2022/02/26 00:49:59;;;;;;;30.42;19.27;;;;;;;6.65;53.10;101693.50;2097177;28;20175;-67
2022/02/26 00:51:00;;;;;;;26.87;17.47;;;;;;;6.62;53.31;101689.56;2097685;28;20653;-67
2022/02/26 00:52:01;;;;;;;20.03;14.27;;;;;;;6.74;51.84;101699.50;2097525;28;20607;-67
2022/02/26 00:53:02;;;;;;;23.63;14.82;;;;;;;6.71;52.24;101705.78;2097514;28;20183;-67
2022/02/26 00:54:02;;;;;;;20.53;14.67;;;;;;;6.78;53.05;101703.91;2097495;28;20212;-67
2022/02/26 00:55:06;;;;;;;20.77;14.03;;;;;;;6.80;52.61;101706.25;2097508;28;20195;-67
2022/02/26 00:56:06;;;;;;;22.60;13.52;;;;;;;6.84;51.30;101701.56;2097505;28;20266;-67
2022/02/26 00:57:07;;;;;;;20.20;13.83;;;;;;;6.07;52.40;101582.47;2097660;28;20188;-67
2022/02/26 00:58:07;;;;;;;18.83;13.50;;;;;;;6.90;51.93;101706.34;2096560;28;20203;-67
2022/02/26 00:59:09;;;;;;;20.77;13.33;;;;;;;6.96;51.24;101709.53;2089342;28;20179;-67
2022/02/26 01:00:10;;;;;;;17.90;12.68;;;;;;;6.29;51.42;101595.25;2088857;28;20460;-67
2022/02/26 01:01:11;;;;;;;21.13;13.35;;;;;;;7.10;51.40;101709.63;2089278;28;20262;-67
2022/02/26 01:02:12;;;;;;;16.60;11.90;;;;;;;6.71;51.16;101643.22;2089434;28;20183;-67
2022/02/26 01:03:12;;;;;;;17.63;12.43;;;;;;;7.15;50.66;101714.78;2088911;28;20197;-67
2022/02/26 01:04:13;;;;;;;17.37;12.93;;;;;;;7.17;50.65;101712.47;2089438;28;20192;-67
2022/02/26 01:05:14;;;;;;;20.83;13.37;;;;;;;7.19;50.78;101716.44;2089315;28;20199;-67
2022/02/26 01:06:16;;;;;;;22.90;15.73;;;;;;;7.28;50.98;101719.63;2095994;28;20207;-67
2022/02/26 01:07:16;;;;;;;20.08;13.82;;;;;;;7.32;51.16;101720.44;2097531;28;20187;-67
2022/02/26 01:08:17;;;;;;;21.33;14.23;;;;;;;7.19;50.78;101699.09;2097593;28;20189;-67
2022/02/26 01:09:18;;;;;;;23.23;13.97;;;;;;;6.20;50.57;101554.28;2097642;28;20668;-67
2022/02/26 01:10:18;;;;;;;23.13;16.80;;;;;;;7.36;51.14;101725.97;2096800;28;20192;-67
2022/02/26 01:11:19;;;;;;;21.80;14.50;;;;;;;7.37;51.46;101722.03;2097516;28;20349;-67
2022/02/26 01:12:19;;;;;;;20.73;14.47;;;;;;;6.43;50.81;101571.41;2097578;28;20187;-67
2022/02/26 01:13:20;;;;;;;22.17;13.97;;;;;;;7.26;51.27;101710.94;2097177;28;20184;-67
2022/02/26 01:14:21;;;;;;;18.40;13.10;;;;;;;7.24;51.00;101729.06;2097735;28;20241;-67
2022/02/26 01:15:22;;;;;;;20.48;15.27;;;;;;;7.24;51.32;101727.09;2097399;28;20184;-67
2022/02/26 01:16:22;;;;;;;18.60;12.63;;;;;;;7.38;50.45;101729.16;2097565;28;20190;-67
2022/02/26 01:17:23;;;;;;;15.77;12.37;;;;;;;6.35;50.78;101564.22;2097320;28;20197;-67
2022/02/26 01:18:24;;;;;;;20.17;14.13;;;;;;;7.41;49.78;101722.84;2097596;28;20210;-67
2022/02/26 01:19:25;;;;;;;22.03;15.07;;;;;;;7.37;49.67;101733.06;2087834;28;20199;-67
2022/02/26 01:20:25;;;;;;;19.87;15.17;;;;;;;7.21;50.57;101732.56;2088025;28;20231;-67
2022/02/26 01:21:26;;;;;;;23.97;15.90;;;;;;;6.30;50.23;101586.59;2097321;28;20190;-67
2022/02/26 01:22:26;;;;;;;22.43;16.20;;;;;;;7.36;50.80;101731.50;2097451;28;20195;-67
2022/02/26 01:23:27;;;;;;;21.60;14.70;;;;;;;7.27;50.63;101731.03;2097074;28;20210;-67
2022/02/26 01:24:28;;;;;;;22.70;13.80;;;;;;;6.14;50.65;101564.06;2097612;28;20576;-67
2022/02/26 01:25:29;;;;;;;26.13;17.17;;;;;;;7.35;52.10;101732.66;2097456;28;20213;-67
2022/02/26 01:26:29;;;;;;;23.65;16.63;;;;;;;7.39;51.83;101736.25;2097393;28;20679;-67
2022/02/26 01:27:30;;;;;;;28.13;17.20;;;;;;;6.84;51.96;101644.50;2097391;28;20659;-67
2022/02/26 01:28:31;;;;;;;20.10;15.13;;;;;;;7.41;52.11;101725.59;2088598;28;20196;-67
2022/02/26 01:29:32;;;;;;;20.67;15.50;;;;;;;7.42;51.80;101746.50;2088509;28;20180;-67
2022/02/26 01:30:33;;;;;;;20.33;14.57;;;;;;;7.37;51.11;101717.31;2096730;28;20176;-67
2022/02/26 01:31:34;;;;;;;20.70;14.30;;;;;;;7.49;50.78;101736.31;2097399;28;20211;-67
2022/02/26 01:32:35;;;;;;;23.80;15.30;;;;;;;7.59;50.18;101734.81;2097403;28;20712;-67
2022/02/26 01:33:35;;;;;;;23.88;15.13;;;;;;;7.63;50.70;101738.38;2096895;28;20176;-67
2022/02/26 01:34:36;;;;;;;20.23;13.90;;;;;;;7.70;50.51;101741.94;2092660;28;20177;-67
2022/02/26 01:35:36;;;;;;;17.93;13.40;;;;;;;7.67;49.67;101739.97;2089045;28;20665;-67
2022/02/26 01:36:37;;;;;;;19.23;13.23;;;;;;;7.67;50.30;101739.97;2089352;28;20287;-67
2022/02/26 01:37:38;;;;;;;20.97;14.07;;;;;;;6.60;49.42;101561.66;2088916;28;20246;-67
2022/02/26 01:38:39;;;;;;;18.33;12.80;;;;;;;7.79;49.99;101739.63;2089328;28;20266;-67
2022/02/26 01:39:39;;;;;;;19.20;13.23;;;;;;;7.42;49.90;101672.84;2095714;28;20184;-67
2022/02/26 01:40:40;;;;;;;20.63;13.13;;;;;;;7.07;49.08;101620.25;2096754;28;20176;-67
2022/02/26 01:41:41;;;;;;;18.77;13.03;;;;;;;7.59;49.41;101696.19;2097189;28;20254;-67
2022/02/26 01:42:42;;;;;;;20.70;13.67;;;;;;;6.96;49.41;101591.03;2097271;28;20621;-67
2022/02/26 01:43:42;;;;;;;23.50;14.52;;;;;;;7.98;48.98;101742.09;2096812;28;20257;-67
2022/02/26 01:44:47;;;;;;;19.40;13.00;;;;;;;7.89;49.18;101741.66;2097623;28;20271;-67
2022/02/26 01:45:48;;;;;;;19.70;14.15;;;;;;;7.96;48.94;101729.84;2097206;28;20180;-67
2022/02/26 01:46:49;;;;;;;17.57;13.30;;;;;;;8.00;49.14;101736.19;2097473;28;20196;-67
2022/02/26 01:47:49;;;;;;;20.23;13.33;;;;;;;7.97;49.06;101736.97;2097385;28;20187;-67
2022/02/26 01:48:51;;;;;;;19.83;13.40;;;;;;;7.98;49.31;101738.53;2092483;28;20189;-67
2022/02/26 01:49:51;;;;;;;17.30;13.38;;;;;;;8.02;48.94;101731.88;2088843;28;20172;-67
2022/02/26 01:50:52;;;;;;;18.57;13.40;;;;;;;7.90;49.71;101732.19;2079696;28;20335;-67
2022/02/26 01:51:53;;;;;;;19.40;14.32;;;;;;;7.39;49.40;101648.78;2080143;28;20196;-67
2022/02/26 01:52:54;;;;;;;22.57;13.47;;;;;;;7.19;49.30;101617.19;2089177;28;20207;-67
2022/02/26 01:53:54;;;;;;;20.03;13.50;;;;;;;8.05;49.18;101728.31;2088724;28;20689;-67
2022/02/26 01:54:55;;;;;;;19.83;13.57;;;;;;;7.98;48.79;101721.97;2089014;28;20187;-67
2022/02/26 01:55:56;;;;;;;18.33;13.43;;;;;;;7.33;49.00;101631.03;2088860;28;20222;-67
2022/02/26 01:56:57;;;;;;;17.60;13.27;;;;;;;8.02;49.42;101739.34;2080155;28;20193;-67
2022/02/26 01:57:58;;;;;;;19.37;14.00;;;;;;;8.07;49.10;101739.78;2072007;28;20236;-67
2022/02/26 01:58:58;;;;;;;18.97;13.27;;;;;;;8.08;49.22;101768.16;2080156;28;20185;-67
2022/02/26 01:59:59;;;;;;;21.00;14.47;;;;;;;8.04;49.08;101748.06;2088427;28;20425;-67
2022/02/26 02:01:00;;;;;;;22.43;14.00;;;;;;;7.40;48.67;101655.09;2089014;28;20307;-67
2022/02/26 02:02:01;;;;;;;21.35;13.98;;;;;;;7.73;49.44;101723.81;2088989;28;20569;-67
2022/02/26 02:03:02;;;;;;;21.92;13.75;;;;;;;7.85;48.73;101749.13;2089033;28;20241;-67
2022/02/26 02:04:03;;;;;;;21.57;13.50;;;;;;;7.86;49.22;101752.69;2088589;28;20245;-67
2022/02/26 02:05:05;;;;;;;21.35;13.57;;;;;;;7.75;48.89;101733.28;2089051;28;20664;-67
2022/02/26 02:06:06;;;;;;;18.98;14.10;;;;;;;7.89;49.66;101754.69;2088887;28;20566;-67
2022/02/26 02:07:06;;;;;;;20.70;14.83;;;;;;;7.95;49.05;101753.13;2089047;28;20184;-67
2022/02/26 02:08:07;;;;;;;18.77;14.10;;;;;;;7.41;48.86;101676.78;2088868;28;20304;-67
2022/02/26 02:09:07;;;;;;;20.17;13.67;;;;;;;7.84;49.13;101755.03;2088927;28;20188;-67
2022/02/26 02:10:08;;;;;;;19.70;13.77;;;;;;;7.84;49.60;101755.81;2088229;28;20514;-67
2022/02/26 02:11:09;;;;;;;20.70;14.83;;;;;;;7.81;49.82;101751.09;2088824;28;20182;-67
2022/02/26 02:12:11;;;;;;;21.20;14.97;;;;;;;7.77;49.29;101755.78;2088837;28;20184;-67
2022/02/26 02:13:11;;;;;;;18.65;13.80;;;;;;;7.70;49.31;101732.88;2088558;28;20188;-68
2022/02/26 02:14:12;;;;;;;23.00;15.20;;;;;;;7.83;49.63;101761.72;2089100;28;20259;-67
2022/02/26 02:15:13;;;;;;;21.50;14.60;;;;;;;7.40;49.60;101694.50;2088849;28;20243;-67
2022/02/26 02:16:18;;;;;;;23.70;14.50;;;;;;;7.82;49.41;101762.91;2088920;28;20191;-67
2022/02/26 02:17:21;;;;;;;19.70;13.95;;;;;;;7.82;49.48;101758.19;2088702;28;20181;-67
2022/02/26 02:18:22;;;;;;;18.45;13.43;;;;;;;7.75;49.98;101757.34;2088938;28;20181;-67
2022/02/26 02:19:25;;;;;;;21.47;14.53;;;;;;;7.05;49.12;101641.91;2088931;28;20188;-67
2022/02/26 02:20:25;;;;;;;21.63;14.15;;;;;;;7.87;49.50;101763.34;2088223;28;20184;-67
2022/02/26 02:21:26;;;;;;;20.30;14.03;;;;;;;7.81;49.65;101744.78;2088969;28;20246;-67
2022/02/26 02:22:26;;;;;;;19.80;14.90;;;;;;;7.92;49.55;101753.88;2092331;28;20195;-67
2022/02/26 02:23:27;;;;;;;20.50;14.03;;;;;;;7.90;49.43;101751.50;2096857;28;20313;-67
2022/02/26 02:24:27;;;;;;;25.47;14.87;;;;;;;8.03;49.00;101763.00;2097283;28;20205;-67
2022/02/26 02:25:30;;;;;;;23.77;14.23;;;;;;;8.02;49.20;101759.47;2097220;28;20180;-67
2022/02/26 02:26:33;;;;;;;24.08;14.32;;;;;;;8.03;49.25;101768.53;2097186;28;20181;-67
2022/02/26 02:27:34;;;;;;;20.38;14.27;;;;;;;7.98;49.08;101766.94;2096970;28;20196;-67
2022/02/26 02:28:35;;;;;;;20.07;14.00;;;;;;;7.50;49.18;101691.00;2096350;28;20192;-67
2022/02/26 02:29:36;;;;;;;21.33;14.47;;;;;;;7.43;49.35;101682.69;2088727;28;20261;-67
2022/02/26 02:30:37;;;;;;;18.70;14.10;;;;;;;7.96;49.65;101763.78;2088709;28;20170;-67
2022/02/26 02:31:38;;;;;;;19.83;14.25;;;;;;;7.92;49.49;101764.94;2090275;28;20677;-67
2022/02/26 02:32:38;;;;;;;21.67;15.57;;;;;;;7.96;49.97;101769.31;2090515;28;20760;-67
2022/02/26 02:33:41;;;;;;;21.20;15.27;;;;;;;7.85;49.77;101768.44;2090132;28;20181;-67
2022/02/26 02:34:42;;;;;;;22.77;14.68;;;;;;;7.69;49.84;101756.16;2095976;28;20206;-67
2022/02/26 02:35:43;;;;;;;21.27;15.27;;;;;;;7.84;50.06;101777.91;2098687;28;20183;-67
2022/02/26 02:36:46;;;;;;;21.38;14.50;;;;;;;7.04;50.38;101640.31;2098885;28;20624;-67
2022/02/26 02:37:46;;;;;;;19.25;14.48;;;;;;;7.79;49.96;101767.22;2098391;28;20180;-67
2022/02/26 02:38:47;;;;;;;25.67;16.20;;;;;;;7.71;50.03;101748.25;2098842;28;20200;-67
2022/02/26 02:39:47;;;;;;;22.67;15.50;;;;;;;7.91;49.63;101775.19;2098546;28;20189;-67
2022/02/26 02:40:49;;;;;;;21.93;15.07;;;;;;;7.84;49.75;101769.63;2098338;28;20240;-67
2022/02/26 02:41:50;;;;;;;20.55;15.07;;;;;;;7.82;49.68;101777.50;2098322;28;20216;-67
2022/02/26 02:42:53;;;;;;;22.10;15.57;;;;;;;7.78;50.36;101775.88;2098716;28;20181;-67
2022/02/26 02:43:53;;;;;;;20.73;14.93;;;;;;;7.33;50.15;101727.53;2098097;28;20191;-67
2022/02/26 02:44:54;;;;;;;24.03;15.67;;;;;;;7.64;50.81;101765.56;2098688;28;20186;-67
2022/02/26 02:45:54;;;;;;;20.87;14.93;;;;;;;7.73;50.80;101779.81;2098503;28;20188;-67
2022/02/26 02:46:55;;;;;;;18.23;14.10;;;;;;;7.76;50.50;101772.72;2091286;28;20650;-67
2022/02/26 02:47:55;;;;;;;19.80;14.83;;;;;;;6.98;50.37;101669.38;2082388;28;20284;-67
2022/02/26 02:48:56;;;;;;;22.63;15.03;;;;;;;7.62;50.61;101775.41;2083941;28;20634;-67
2022/02/26 02:49:56;;;;;;;21.70;14.67;;;;;;;7.62;50.67;101747.81;2089791;28;20765;-67
2022/02/26 02:50:57;;;;;;;24.23;15.60;;;;;;;7.82;50.10;101782.22;2090200;28;20184;-67
2022/02/26 02:51:58;;;;;;;21.70;14.87;;;;;;;7.00;50.24;101655.22;2081238;28;20193;-67
2022/02/26 02:52:59;;;;;;;21.50;15.03;;;;;;;7.82;50.41;101777.50;2081693;28;20295;-67
2022/02/26 02:53:59;;;;;;;20.23;14.90;;;;;;;7.83;50.12;101789.31;2089929;28;20188;-67
2022/02/26 02:55:00;;;;;;;23.20;15.50;;;;;;;7.83;50.13;101783.81;2090308;28;20185;-67
2022/02/26 02:56:00;;;;;;;21.57;15.00;;;;;;;7.69;49.57;101765.19;2090167;28;20215;-67
2022/02/26 02:57:01;;;;;;;20.90;14.70;;;;;;;7.85;49.78;101785.00;2090303;28;20185;-67
2022/02/26 02:58:02;;;;;;;21.37;14.90;;;;;;;7.86;49.84;101791.31;2090201;28;20234;-67
2022/02/26 02:59:03;;;;;;;24.93;15.17;;;;;;;7.79;50.17;101786.53;2090262;28;20281;-67
2022/02/26 03:00:05;;;;;;;20.63;14.63;;;;;;;7.83;49.92;101792.06;2080709;28;20186;-67
2022/02/26 03:01:06;;;;;;;18.38;14.50;;;;;;;7.19;49.93;101699.09;2081602;28;20243;-67
2022/02/26 03:02:06;;;;;;;20.37;14.20;;;;;;;7.77;49.85;101777.88;2090144;28;20242;-67
2022/02/26 03:03:07;;;;;;;21.93;14.50;;;;;;;7.65;50.17;101767.16;2089992;28;20176;-67
2022/02/26 03:04:08;;;;;;;19.15;13.35;;;;;;;7.72;50.44;101802.25;2090261;28;20185;-67
2022/02/26 03:05:10;;;;;;;19.30;13.23;;;;;;;7.54;50.28;101771.78;2091333;28;20204;-67
2022/02/26 03:06:10;;;;;;;19.48;13.07;;;;;;;7.55;50.94;101798.22;2098506;28;20275;-67
2022/02/26 03:07:11;;;;;;;21.63;14.63;;;;;;;7.36;51.34;101786.63;2098633;28;20188;-67
2022/02/26 03:08:13;;;;;;;20.73;14.33;;;;;;;7.35;51.20;101807.13;2098431;28;20275;-66
2022/02/26 03:09:13;;;;;;;18.95;13.63;;;;;;;7.16;51.96;101780.59;2098441;28;20187;-67
2022/02/26 03:10:15;;;;;;;18.50;13.47;;;;;;;5.94;52.01;101605.94;2096045;28;20664;-67
2022/02/26 03:11:15;;;;;;;18.77;13.50;;;;;;;7.09;52.17;101810.84;2090263;28;20184;-67
2022/02/26 03:12:17;;;;;;;20.60;14.03;;;;;;;7.07;52.62;101807.66;2090110;28;20275;-67
2022/02/26 03:13:20;;;;;;;18.40;13.02;;;;;;;5.91;52.64;101647.94;2089776;28;20215;-67
2022/02/26 03:14:20;;;;;;;21.70;14.10;;;;;;;7.01;52.57;101808.38;2090324;28;20543;-67
2022/02/26 03:15:22;;;;;;;20.53;13.43;;;;;;;6.97;52.58;101813.88;2090034;28;20235;-67
2022/02/26 03:16:23;;;;;;;19.48;13.48;;;;;;;6.98;52.79;101807.19;2090221;28;20202;-67
2022/02/26 03:17:24;;;;;;;20.20;13.90;;;;;;;6.87;52.46;101795.28;2090101;28;20718;-67
2022/02/26 03:18:25;;;;;;;23.47;13.37;;;;;;;6.86;52.78;101812.19;2090175;28;20263;-67
2022/02/26 03:19:26;;;;;;;22.33;14.13;;;;;;;5.73;53.09;101646.91;2090046;28;20211;-67
2022/02/26 03:20:26;;;;;;;20.10;13.33;;;;;;;6.54;53.19;101776.06;2089374;28;20189;-67
2022/02/26 03:21:27;;;;;;;19.23;13.40;;;;;;;6.86;52.61;101809.41;2081003;28;20221;-67
2022/02/26 03:22:27;;;;;;;17.37;13.67;;;;;;;6.71;53.29;101805.75;2081297;28;20188;-66
2022/02/26 03:23:28;;;;;;;20.90;13.37;;;;;;;6.45;52.90;101769.25;2089656;28;20325;-67
2022/02/26 03:24:29;;;;;;;21.87;13.00;;;;;;;6.71;52.80;101807.72;2090160;28;20264;-67
2022/02/26 03:25:29;;;;;;;21.43;14.00;;;;;;;6.74;53.29;101820.72;2089942;28;20283;-67
2022/02/26 03:26:30;;;;;;;18.07;12.70;;;;;;;6.69;53.02;101818.31;2090087;28;20187;-67
2022/02/26 03:27:31;;;;;;;19.50;13.53;;;;;;;6.61;53.60;101822.16;2090009;28;20259;-67
2022/02/26 03:28:32;;;;;;;21.20;13.40;;;;;;;6.53;53.64;101820.47;2090203;28;20234;-67
2022/02/26 03:29:32;;;;;;;21.63;13.87;;;;;;;6.58;53.59;101820.97;2089787;28;20230;-67
2022/02/26 03:30:33;;;;;;;20.40;14.00;;;;;;;6.54;53.76;101825.63;2089398;28;20568;-67
2022/02/26 03:31:34;;;;;;;21.25;13.77;;;;;;;5.70;53.72;101713.66;2089919;28;20270;-67
2022/02/26 03:32:35;;;;;;;19.97;13.90;;;;;;;5.34;53.62;101635.41;2081124;28;20760;-67
2022/02/26 03:33:36;;;;;;;19.75;13.55;;;;;;;6.49;53.65;101825.16;2080772;28;20801;-67
2022/02/26 03:34:37;;;;;;;19.60;13.10;;;;;;;6.54;53.60;101830.34;2094973;28;20632;-67
2022/02/26 03:35:39;;;;;;;18.00;12.60;;;;;;;6.61;53.76;101820.19;2098225;28;20178;-67
2022/02/26 03:36:40;;;;;;;20.50;13.50;;;;;;;5.71;53.45;101698.75;2098358;28;20435;-67
2022/02/26 03:37:41;;;;;;;20.30;13.90;;;;;;;6.60;53.48;101826.88;2098101;28;20194;-67
2022/02/26 03:38:42;;;;;;;16.40;12.67;;;;;;;6.64;53.36;101822.19;2098520;28;20177;-67
2022/02/26 03:39:43;;;;;;;18.23;13.02;;;;;;;6.39;53.22;101779.81;2091001;28;20353;-67
2022/02/26 03:40:43;;;;;;;16.07;12.17;;;;;;;6.69;53.35;101821.88;2089395;28;20180;-67
2022/02/26 03:41:44;;;;;;;18.57;13.30;;;;;;;6.56;53.16;101800.47;2089641;28;20230;-67
2022/02/26 03:42:46;;;;;;;18.50;13.60;;;;;;;6.84;52.68;101828.31;2080580;28;20197;-67
2022/02/26 03:43:46;;;;;;;17.83;12.60;;;;;;;6.70;52.58;101817.94;2080648;28;20181;-67
2022/02/26 03:44:48;;;;;;;18.80;13.50;;;;;;;6.65;52.68;101801.75;2090155;28;20263;-67
2022/02/26 03:45:49;;;;;;;20.23;12.75;;;;;;;6.88;52.75;101826.38;2090012;28;20373;-67
2022/02/26 03:46:49;;;;;;;20.93;13.00;;;;;;;6.86;52.68;101820.44;2096597;28;20188;-67
2022/02/26 03:47:50;;;;;;;14.87;11.87;;;;;;;6.78;52.70;101819.59;2097508;28;20566;-67
2022/02/26 03:48:51;;;;;;;18.23;12.20;;;;;;;6.83;52.62;101826.72;2095001;28;20217;-67
2022/02/26 03:49:51;;;;;;;17.23;12.53;;;;;;;6.84;52.76;101820.84;2097813;28;20266;-67
2022/02/26 03:50:52;;;;;;;18.57;12.13;;;;;;;6.81;52.69;101818.84;2097858;28;20307;-67
2022/02/26 03:51:53;;;;;;;18.20;12.70;;;;;;;6.75;52.44;101828.63;2098126;28;20738;-67
2022/02/26 03:52:53;;;;;;;16.50;12.23;;;;;;;6.68;52.56;101834.06;2098181;28;20198;-67
2022/02/26 03:53:54;;;;;;;14.93;12.13;;;;;;;6.67;53.18;101826.94;2097729;28;20187;-67
2022/02/26 03:54:55;;;;;;;17.67;11.90;;;;;;;6.66;53.09;101830.09;2098240;28;20811;-67
2022/02/26 03:55:55;;;;;;;19.08;12.40;;;;;;;6.76;52.99;101832.94;2098093;28;20676;-67
2022/02/26 03:56:56;;;;;;;17.00;11.87;;;;;;;6.74;51.95;101827.03;2097999;28;20603;-67
2022/02/26 03:57:56;;;;;;;17.20;12.43;;;;;;;6.30;52.97;101757.28;2098004;28;20247;-67
2022/02/26 03:58:57;;;;;;;16.83;12.53;;;;;;;6.72;52.65;101829.34;2098067;28;20176;-67
2022/02/26 03:59:59;;;;;;;15.03;11.43;;;;;;;6.28;52.60;101789.13;2097240;28;20214;-67
2022/02/26 04:01:00;;;;;;;17.33;12.50;;;;;;;6.69;52.47;101832.88;2097988;28;20465;-67
2022/02/26 04:02:00;;;;;;;20.30;12.73;;;;;;;6.70;52.94;101841.91;2098067;28;20190;-67
2022/02/26 04:03:01;;;;;;;18.43;12.30;;;;;;;6.72;52.57;101840.38;2097996;28;20755;-67
2022/02/26 04:04:02;;;;;;;15.67;11.77;;;;;;;6.66;52.35;101821.84;2088962;28;20218;-67
2022/02/26 04:05:03;;;;;;;18.60;12.77;;;;;;;6.81;52.17;101845.63;2089335;28;20198;-67
2022/02/26 04:06:03;;;;;;;17.47;12.13;;;;;;;6.78;52.81;101844.41;2097929;28;20201;-67
2022/02/26 04:07:05;;;;;;;17.30;12.43;;;;;;;6.72;52.39;101847.88;2098003;28;20261;-67
2022/02/26 04:08:05;;;;;;;16.85;12.95;;;;;;;6.73;52.62;101849.44;2098123;28;20264;-67
2022/02/26 04:09:06;;;;;;;20.37;12.67;;;;;;;6.71;52.54;101868.31;2098019;28;20668;-67
2022/02/26 04:10:07;;;;;;;18.97;12.83;;;;;;;6.81;52.30;101853.88;2096381;28;20184;-67
2022/02/26 04:11:08;;;;;;;17.83;12.05;;;;;;;5.42;52.45;101650.03;2080751;28;20191;-67
2022/02/26 04:12:09;;;;;;;19.13;12.63;;;;;;;5.80;52.34;101705.56;2080883;28;20210;-67
2022/02/26 04:13:09;;;;;;;17.77;12.23;;;;;;;6.78;52.50;101858.19;2089330;28;20265;-67
2022/02/26 04:14:10;;;;;;;18.60;12.83;;;;;;;6.56;52.94;101826.03;2089793;28;20190;-67
2022/02/26 04:15:11;;;;;;;20.63;12.53;;;;;;;6.74;52.85;101854.59;2089683;28;20682;-67
2022/02/26 04:16:11;;;;;;;19.87;13.80;;;;;;;6.62;52.21;101860.31;2089812;28;20193;-67
2022/02/26 04:17:12;;;;;;;19.10;12.60;;;;;;;6.61;52.51;101857.97;2080702;28;20598;-67
2022/02/26 04:18:12;;;;;;;18.50;12.07;;;;;;;6.47;53.16;101864.06;2072635;28;20254;-67
2022/02/26 04:19:13;;;;;;;17.70;12.70;;;;;;;5.45;52.78;101709.78;2080779;28;20188;-67
2022/02/26 04:20:14;;;;;;;18.30;12.53;;;;;;;6.08;53.81;101848.22;2088882;28;20192;-67
2022/02/26 04:21:14;;;;;;;18.90;12.37;;;;;;;5.10;53.12;101677.09;2089468;28;20214;-67
2022/02/26 04:22:15;;;;;;;16.67;11.93;;;;;;;6.20;53.13;101862.56;2089523;28;20667;-67
2022/02/26 04:23:15;;;;;;;16.73;12.37;;;;;;;6.13;53.65;101848.72;2095741;28;20182;-67
2022/02/26 04:24:16;;;;;;;17.37;12.10;;;;;;;6.12;53.78;101847.13;2097974;28;20224;-67
2022/02/26 04:25:17;;;;;;;17.63;11.27;;;;;;;6.08;53.69;101870.25;2097709;28;20192;-67
2022/02/26 04:26:18;;;;;;;15.63;11.57;;;;;;;5.89;53.78;101853.88;2097859;28;20185;-67
2022/02/26 04:27:19;;;;;;;15.17;11.13;;;;;;;5.98;53.71;101863.44;2088626;28;20181;-67
2022/02/26 04:28:19;;;;;;;16.50;11.50;;;;;;;5.96;54.30;101865.78;2089135;28;20226;-67
2022/02/26 04:29:20;;;;;;;16.20;10.97;;;;;;;6.01;54.02;101872.91;2097687;28;20185;-67
2022/02/26 04:30:21;;;;;;;14.23;10.70;;;;;;;6.06;53.81;101862.34;2097254;28;20190;-67
2022/02/26 04:31:23;;;;;;;13.50;10.50;;;;;;;6.01;53.50;101859.91;2097695;28;20176;-67
2022/02/26 04:32:23;;;;;;;15.13;10.73;;;;;;;6.13;53.19;101867.97;2097713;28;20691;-67
2022/02/26 04:33:26;;;;;;;14.43;10.77;;;;;;;5.44;53.42;101749.44;2097215;28;20225;-67
2022/02/26 04:34:27;;;;;;;13.95;10.77;;;;;;;6.26;52.87;101869.31;2088861;28;20277;-67
2022/02/26 04:35:27;;;;;;;17.43;11.43;;;;;;;6.17;52.73;101851.50;2088851;28;20185;-67
2022/02/26 04:36:28;;;;;;;18.53;10.40;;;;;;;6.36;52.87;101871.41;2097933;28;20713;-67
2022/02/26 04:37:28;;;;;;;17.13;11.03;;;;;;;6.41;52.79;101873.84;2097563;28;20222;-67
2022/02/26 04:38:29;;;;;;;19.53;10.93;;;;;;;6.40;52.65;101865.97;2088927;28;20221;-67
2022/02/26 04:39:30;;;;;;;16.37;11.13;;;;;;;6.54;52.57;101882.66;2088757;28;20197;-67
2022/02/26 04:40:30;;;;;;;17.87;10.43;;;;;;;5.40;52.15;101707.34;2097089;28;20652;-67